Time;durP1;ratioP1;P1;durP2;ratioP2;P2;SDS_P1;SDS_P2;PMS_P1;PMS_P2;Temp;Humidity;BMP_temperature;BMP_pressure;BME280_temperature;BME280_humidity;BME280_pressure;Samples;Min_cycle;Max_cycle;Signal;HPM_P1;HPM_P2
2023/06/12 00:02:17;;;;;;;4.13;2.50;;;20.80;40.80;;;;;;5044556;28;20155;-79
2023/06/12 00:04:44;;;;;;;3.50;2.50;;;20.70;40.80;;;;;;5027674;28;20174;-81
2023/06/12 00:07:12;;;;;;;3.97;2.67;;;20.70;40.80;;;;;;5043964;28;20624;-82
2023/06/12 00:09:38;;;;;;;2.40;2.20;;;20.70;40.80;;;;;;5027223;28;20307;-78
2023/06/12 00:12:04;;;;;;;2.58;2.38;;;20.80;40.80;;;;;;5043796;28;20178;-81
2023/06/12 00:14:29;;;;;;;2.38;2.17;;;20.70;40.80;;;;;;5043512;28;20177;-79
2023/06/12 00:16:55;;;;;;;2.50;2.30;;;20.70;40.80;;;;;;5027281;28;20170;-80
2023/06/12 00:19:22;;;;;;;2.60;2.40;;;20.70;40.80;;;;;;5060795;28;20185;-79
2023/06/12 00:21:48;;;;;;;2.60;2.40;;;20.70;40.90;;;;;;5043773;28;20185;-83
2023/06/12 00:24:14;;;;;;;2.90;2.70;;;20.70;40.80;;;;;;5060176;28;20651;-79
2023/06/12 00:26:40;;;;;;;2.63;2.42;;;20.70;40.80;;;;;;5062005;28;20186;-79
2023/06/12 00:29:06;;;;;;;2.85;2.55;;;20.70;40.90;;;;;;5043234;28;20162;-79
2023/06/12 00:31:34;;;;;;;2.95;2.67;;;20.70;40.90;;;;;;5061526;28;20207;-80
2023/06/12 00:34:01;;;;;;;2.63;2.35;;;20.70;41.00;;;;;;5027122;28;20234;-83
2023/06/12 00:36:27;;;;;;;3.05;2.75;;;20.60;40.90;;;;;;5046196;28;20177;-79
2023/06/12 00:38:53;;;;;;;2.90;2.35;;;20.70;40.90;;;;;;5063922;28;20200;-80
2023/06/12 00:41:19;;;;;;;2.60;2.40;;;20.70;40.90;;;;;;5030710;28;20170;-79
2023/06/12 00:43:47;;;;;;;2.67;2.45;;;20.70;41.00;;;;;;5046485;28;20613;-80
2023/06/12 00:46:12;;;;;;;2.85;2.60;;;20.70;41.00;;;;;;5030141;28;20312;-81
2023/06/12 00:48:38;;;;;;;2.50;2.30;;;20.70;41.00;;;;;;5063843;28;20166;-80
2023/06/12 00:51:04;;;;;;;2.80;2.60;;;20.60;40.90;;;;;;5047066;28;20249;-78
2023/06/12 00:53:30;;;;;;;2.60;2.40;;;20.70;41.00;;;;;;5064517;28;20159;-82
2023/06/12 00:55:55;;;;;;;2.83;2.50;;;20.70;41.00;;;;;;5030328;28;20514;-81
2023/06/12 00:58:21;;;;;;;3.15;2.22;;;20.70;41.00;;;;;;5063069;28;20158;-78
2023/06/12 01:00:48;;;;;;;2.70;2.50;;;20.70;41.00;;;;;;5063062;28;20631;-80
2023/06/12 01:03:13;;;;;;;2.65;2.45;;;20.70;41.00;;;;;;5046628;28;20182;-81
2023/06/12 01:05:42;;;;;;;2.78;2.38;;;20.70;41.00;;;;;;5064048;28;20241;-79
2023/06/12 01:08:29;;;;;;;2.78;2.55;;;20.70;41.10;;;;;;5062853;28;20178;-82
2023/06/12 01:11:03;;;;;;;2.60;2.40;;;20.60;41.10;;;;;;5063499;28;20157;-78
2023/06/12 01:13:29;;;;;;;2.95;2.50;;;20.60;41.00;;;;;;5029546;28;20173;-80
2023/06/12 01:15:55;;;;;;;2.65;2.42;;;20.60;41.00;;;;;;5062981;28;20683;-79
2023/06/12 01:18:22;;;;;;;2.72;2.53;;;20.60;41.00;;;;;;5046034;28;20155;-79
2023/06/12 01:20:49;;;;;;;2.42;2.22;;;20.60;41.00;;;;;;5061816;28;20664;-80
2023/06/12 01:23:43;;;;;;;2.63;2.42;;;20.60;41.00;;;;;;5063319;28;20158;-80
2023/06/12 01:26:45;;;;;;;2.70;2.50;;;20.70;41.00;;;;;;5062384;28;20180;-79
2023/06/12 01:29:42;;;;;;;2.65;2.42;;;20.60;41.10;;;;;;5062348;28;20149;-79
2023/06/12 01:32:15;;;;;;;2.65;2.45;;;20.70;41.00;;;;;;5048053;28;20181;-79
2023/06/12 01:35:03;;;;;;;2.60;2.38;;;20.60;41.00;;;;;;5062995;28;20155;-80
2023/06/12 01:37:43;;;;;;;2.55;2.35;;;20.60;41.20;;;;;;5063986;28;20150;-80
2023/06/12 01:40:12;;;;;;;2.60;2.40;;;20.60;41.10;;;;;;5063987;28;20593;-80
2023/06/12 01:42:38;;;;;;;2.40;2.20;;;20.50;41.10;;;;;;5063534;28;20162;-79
2023/06/12 01:45:04;;;;;;;2.78;2.50;;;20.60;41.10;;;;;;5045306;28;20226;-78
2023/06/12 01:47:32;;;;;;;2.75;2.55;;;20.50;41.10;;;;;;5028541;28;20202;-79
2023/06/12 01:49:59;;;;;;;2.53;2.33;;;20.60;41.20;;;;;;5062341;28;20162;-79
2023/06/12 01:52:26;;;;;;;2.75;2.35;;;20.60;41.20;;;;;;5062196;28;20174;-82
2023/06/12 01:54:51;;;;;;;2.70;2.50;;;20.60;41.20;;;;;;5061206;28;20177;-78
2023/06/12 01:57:19;;;;;;;2.60;2.40;;;20.50;41.20;;;;;;5045441;28;20162;-80
2023/06/12 01:59:46;;;;;;;2.85;2.63;;;20.60;41.20;;;;;;5063673;28;20245;-80
2023/06/12 02:02:12;;;;;;;2.60;2.40;;;20.60;41.20;;;;;;5061839;28;20277;-80
2023/06/12 02:04:39;;;;;;;2.92;2.30;;;20.60;41.20;;;;;;5062781;28;20624;-80
2023/06/12 02:07:05;;;;;;;2.60;2.40;;;20.50;41.20;;;;;;5062087;28;20217;-81
2023/06/12 02:09:31;;;;;;;2.50;2.30;;;20.60;41.20;;;;;;5062027;28;20177;-81
2023/06/12 02:11:57;;;;;;;2.80;2.50;;;20.50;41.20;;;;;;5061012;28;20166;-79
2023/06/12 02:14:26;;;;;;;3.17;2.55;;;20.50;41.20;;;;;;5060969;28;20154;-79
2023/06/12 02:16:53;;;;;;;2.65;2.45;;;20.50;41.30;;;;;;5062937;28;20639;-78
2023/06/12 02:19:22;;;;;;;2.63;2.42;;;20.60;41.30;;;;;;5044098;28;20170;-79
2023/06/12 02:21:49;;;;;;;2.75;2.55;;;20.60;41.20;;;;;;5063339;28;20157;-78
2023/06/12 02:24:15;;;;;;;2.60;2.40;;;20.60;41.20;;;;;;5060974;28;20180;-79
2023/06/12 02:26:41;;;;;;;3.70;2.47;;;20.50;41.20;;;;;;5044131;28;20205;-80
2023/06/12 02:29:09;;;;;;;2.60;2.28;;;20.60;41.90;;;;;;5043975;28;20185;-78
2023/06/12 02:31:35;;;;;;;2.53;2.33;;;20.50;41.30;;;;;;5044437;28;20208;-81
2023/06/12 02:34:02;;;;;;;2.65;2.45;;;20.50;41.30;;;;;;5044005;28;20174;-80
2023/06/12 02:36:28;;;;;;;2.63;2.40;;;20.50;41.20;;;;;;5061142;28;20233;-81
2023/06/12 02:38:56;;;;;;;2.55;2.35;;;20.50;41.30;;;;;;5043695;28;20653;-79
2023/06/12 02:41:23;;;;;;;2.40;2.20;;;20.40;41.20;;;;;;5043498;28;20216;-82
2023/06/12 02:43:48;;;;;;;2.50;2.30;;;20.50;41.30;;;;;;5043470;28;20220;-82
2023/06/12 02:46:14;;;;;;;2.53;2.33;;;20.50;41.30;;;;;;5059270;28;20692;-79
2023/06/12 02:48:41;;;;;;;2.70;2.50;;;20.50;41.30;;;;;;5043340;28;20170;-83
2023/06/12 02:51:06;;;;;;;2.83;2.50;;;20.50;41.20;;;;;;5059750;28;20150;-81
2023/06/12 02:53:34;;;;;;;2.70;2.50;;;20.50;41.20;;;;;;5059508;28;20516;-79
2023/06/12 02:56:00;;;;;;;2.40;2.20;;;20.50;41.20;;;;;;5060883;28;20151;-80
2023/06/12 02:58:26;;;;;;;3.03;2.33;;;20.50;41.30;;;;;;5060668;28;20195;-78
2023/06/12 03:00:52;;;;;;;2.95;2.33;;;20.50;41.30;;;;;;5058968;28;20161;-82
2023/06/12 03:03:21;;;;;;;2.50;2.30;;;20.50;41.20;;;;;;5059661;28;20219;-79
2023/06/12 03:05:47;;;;;;;2.28;2.13;;;20.50;41.30;;;;;;5059907;28;20157;-79
2023/06/12 03:08:16;;;;;;;2.83;2.63;;;20.50;41.20;;;;;;5043170;28;20645;-79
2023/06/12 03:10:42;;;;;;;3.03;2.60;;;20.50;41.30;;;;;;5044202;28;20300;-79
2023/06/12 03:13:08;;;;;;;2.63;2.42;;;20.50;41.30;;;;;;5059529;28;20163;-81
2023/06/12 03:15:34;;;;;;;2.58;2.38;;;20.50;41.40;;;;;;5061955;28;20150;-78
2023/06/12 03:18:00;;;;;;;2.70;2.50;;;20.50;41.30;;;;;;5043230;28;20151;-78
2023/06/12 03:20:27;;;;;;;2.60;2.40;;;20.50;41.40;;;;;;5026866;28;20173;-80
2023/06/12 03:22:53;;;;;;;2.58;2.38;;;20.50;41.40;;;;;;5060636;28;20160;-79
2023/06/12 03:25:19;;;;;;;2.50;2.30;;;20.50;41.40;;;;;;5060108;28;20241;-80
2023/06/12 03:27:45;;;;;;;2.70;2.40;;;20.50;41.40;;;;;;5058998;28;20236;-82
2023/06/12 03:30:11;;;;;;;2.95;2.40;;;20.50;41.30;;;;;;5043299;28;20540;-80
2023/06/12 03:32:37;;;;;;;2.90;2.60;;;20.50;41.30;;;;;;5059073;28;20605;-80
2023/06/12 03:35:04;;;;;;;2.40;2.20;;;20.50;41.30;;;;;;5060382;28;20156;-79
2023/06/12 03:37:33;;;;;;;3.40;2.25;;;20.50;41.30;;;;;;5059968;28;20628;-78
2023/06/12 03:39:58;;;;;;;2.28;2.17;;;20.60;41.30;;;;;;5027276;28;20188;-78
2023/06/12 03:42:26;;;;;;;2.50;2.30;;;20.60;41.20;;;;;;5060435;28;20257;-79
2023/06/12 03:44:52;;;;;;;2.50;2.30;;;20.60;41.20;;;;;;5044278;28;20150;-79
2023/06/12 03:47:18;;;;;;;2.55;2.35;;;20.60;41.20;;;;;;5060440;28;20741;-78
2023/06/12 03:49:45;;;;;;;2.50;2.30;;;20.60;41.20;;;;;;5027435;28;20180;-79
2023/06/12 03:52:11;;;;;;;2.50;2.30;;;20.60;41.20;;;;;;5061812;28;20162;-78
2023/06/12 03:54:38;;;;;;;2.60;2.40;;;20.70;41.20;;;;;;5043865;28;20158;-80
2023/06/12 03:57:05;;;;;;;2.63;2.42;;;20.70;41.20;;;;;;5060011;28;20249;-78
2023/06/12 03:59:30;;;;;;;2.40;2.20;;;20.70;41.10;;;;;;5043510;28;20621;-78
2023/06/12 04:01:58;;;;;;;2.60;2.40;;;20.70;41.10;;;;;;5059070;28;20277;-79
2023/06/12 04:04:24;;;;;;;3.05;2.50;;;20.70;41.10;;;;;;5060799;28;20180;-79
2023/06/12 04:06:50;;;;;;;2.53;2.33;;;20.70;41.20;;;;;;5060552;28;20243;-79
2023/06/12 04:09:19;;;;;;;2.38;2.17;;;20.60;41.10;;;;;;5058792;28;20561;-77
2023/06/12 04:11:46;;;;;;;2.70;2.50;;;20.60;41.10;;;;;;5041981;28;20154;-79
2023/06/12 04:14:13;;;;;;;2.50;2.30;;;20.60;41.00;;;;;;5058598;28;20146;-79
2023/06/12 04:16:38;;;;;;;2.80;2.60;;;20.70;41.00;;;;;;5042579;28;20169;-80
2023/06/12 04:19:05;;;;;;;2.58;2.38;;;20.70;41.00;;;;;;5058481;28;20158;-79
2023/06/12 04:21:32;;;;;;;2.40;2.20;;;20.70;40.90;;;;;;5059190;28;20154;-78
2023/06/12 04:24:01;;;;;;;2.50;2.30;;;20.70;41.00;;;;;;5026345;28;20173;-77
2023/06/12 04:26:27;;;;;;;3.25;2.25;;;20.80;41.00;;;;;;5042654;28;20154;-78
2023/06/12 04:28:54;;;;;;;2.80;2.50;;;20.70;40.90;;;;;;5025643;28;20227;-80
2023/06/12 04:31:21;;;;;;;3.38;2.15;;;20.80;41.10;;;;;;5042522;28;20146;-78
2023/06/12 04:33:51;;;;;;;2.50;2.30;;;20.80;41.00;;;;;;5024875;28;20166;-78
2023/06/12 04:36:21;;;;;;;2.85;2.50;;;20.80;41.00;;;;;;5058762;28;20153;-80
2023/06/12 04:38:52;;;;;;;2.67;2.47;;;20.80;40.90;;;;;;5058856;28;20174;-81
2023/06/12 04:41:24;;;;;;;2.45;2.25;;;20.80;41.00;;;;;;5026675;28;20220;-79
2023/06/12 04:43:51;;;;;;;2.60;2.40;;;20.80;40.90;;;;;;5043594;28;20150;-80
2023/06/12 04:46:18;;;;;;;2.45;2.25;;;20.80;40.90;;;;;;5042095;28;20217;-82
2023/06/12 04:48:44;;;;;;;2.75;2.50;;;20.90;40.80;;;;;;5043243;28;20184;-78
2023/06/12 04:51:09;;;;;;;2.60;2.40;;;20.90;40.90;;;;;;5042705;28;20155;-79
2023/06/12 04:53:39;;;;;;;2.60;2.40;;;20.90;40.70;;;;;;5058841;28;20169;-82
2023/06/12 04:56:08;;;;;;;2.63;2.33;;;20.90;40.90;;;;;;5058019;28;20224;-80
2023/06/12 04:58:42;;;;;;;2.67;2.47;;;20.90;40.90;;;;;;5059426;28;20155;-80
2023/06/12 05:01:08;;;;;;;2.72;2.53;;;20.90;40.90;;;;;;5041779;28;20204;-78
2023/06/12 05:03:33;;;;;;;2.58;2.38;;;20.90;41.50;;;;;;5058221;28;20166;-78
2023/06/12 05:06:03;;;;;;;2.45;2.25;;;20.90;40.70;;;;;;5060140;28;20162;-80
2023/06/12 05:08:29;;;;;;;2.60;2.38;;;20.90;40.80;;;;;;5041557;28;20343;-78
2023/06/12 05:10:55;;;;;;;2.35;2.15;;;20.90;40.70;;;;;;5046762;28;20681;-80
2023/06/12 05:13:20;;;;;;;2.40;2.20;;;20.90;40.70;;;;;;5044050;28;20185;-78
2023/06/12 05:15:47;;;;;;;2.45;2.25;;;21.00;40.70;;;;;;5047944;28;20165;-80
2023/06/12 05:18:14;;;;;;;2.72;2.35;;;21.00;40.70;;;;;;5048379;28;20169;-79
2023/06/12 05:20:40;;;;;;;2.63;2.42;;;21.00;40.60;;;;;;5043129;28;20170;-80
2023/06/12 05:23:08;;;;;;;2.60;2.35;;;21.00;40.60;;;;;;5060648;28;20170;-79
2023/06/12 05:25:36;;;;;;;2.63;2.42;;;21.00;40.50;;;;;;5062438;28;20173;-78
2023/06/12 05:28:03;;;;;;;2.63;2.42;;;21.00;40.50;;;;;;5062097;28;20178;-80
2023/06/12 05:30:29;;;;;;;2.60;2.40;;;21.10;40.50;;;;;;5063238;28;20185;-78
2023/06/12 05:32:55;;;;;;;2.60;2.40;;;21.00;40.50;;;;;;5053974;28;20672;-79
2023/06/12 05:35:20;;;;;;;2.60;2.40;;;21.10;40.50;;;;;;5060346;28;20521;-80
2023/06/12 05:37:46;;;;;;;2.60;2.40;;;21.00;40.70;;;;;;5025403;28;20174;-79
2023/06/12 05:40:13;;;;;;;2.25;2.05;;;20.90;41.00;;;;;;5061509;28;20170;-80
2023/06/12 05:42:39;;;;;;;2.42;2.22;;;20.90;41.30;;;;;;5042458;28;20194;-80
2023/06/12 05:45:05;;;;;;;2.38;2.17;;;20.70;41.50;;;;;;5040242;28;20174;-80
2023/06/12 05:47:33;;;;;;;2.20;2.00;;;20.80;41.80;;;;;;5037089;28;20279;-79
2023/06/12 05:49:59;;;;;;;2.10;1.90;;;20.80;41.70;;;;;;5056017;28;20154;-78
2023/06/12 05:52:25;;;;;;;2.17;1.98;;;20.80;41.90;;;;;;5036271;28;20167;-80
2023/06/12 05:54:51;;;;;;;2.15;2.00;;;20.90;42.00;;;;;;5051571;28;20170;-79
2023/06/12 05:57:17;;;;;;;2.30;2.10;;;20.90;41.70;;;;;;5039505;28;20233;-77
2023/06/12 05:59:44;;;;;;;2.35;2.15;;;20.90;41.80;;;;;;5058180;28;20150;-80
2023/06/12 06:02:12;;;;;;;2.20;2.00;;;20.90;41.80;;;;;;5058325;28;20165;-81
2023/06/12 06:04:37;;;;;;;2.10;2.00;;;20.80;42.00;;;;;;5041444;28;20167;-79
2023/06/12 06:07:03;;;;;;;2.15;1.95;;;20.80;42.20;;;;;;5034514;28;20600;-78
2023/06/12 06:09:31;;;;;;;2.10;1.90;;;20.80;42.40;;;;;;5058277;28;20622;-82
2023/06/12 06:11:57;;;;;;;1.85;1.75;;;20.80;42.30;;;;;;5041870;28;20162;-79
2023/06/12 06:14:23;;;;;;;2.38;2.17;;;20.80;42.40;;;;;;5041620;28;20166;-79
2023/06/12 06:16:50;;;;;;;2.30;2.10;;;20.80;42.30;;;;;;5058109;28;21047;-79
2023/06/12 06:19:15;;;;;;;2.10;1.90;;;20.80;42.40;;;;;;5059092;28;20181;-80
2023/06/12 06:21:41;;;;;;;1.85;1.75;;;20.70;42.40;;;;;;5057235;28;20174;-79
2023/06/12 06:24:08;;;;;;;2.20;2.00;;;20.70;42.50;;;;;;5058168;28;20224;-81
2023/06/12 06:26:33;;;;;;;2.17;1.98;;;20.70;42.40;;;;;;5058319;28;20206;-78
2023/06/12 06:32:12;;;;;;;2.28;2.08;;;20.70;42.50;;;;;;5059165;28;20213;-82
2023/06/12 06:34:37;;;;;;;2.20;2.00;;;20.70;42.40;;;;;;5021801;28;20171;-79
2023/06/12 06:37:03;;;;;;;2.70;1.85;;;20.70;42.40;;;;;;5038471;28;20155;-82
2023/06/12 06:39:29;;;;;;;2.30;2.10;;;20.70;42.60;;;;;;5039312;28;20256;-81
2023/06/12 06:41:55;;;;;;;1.77;1.67;;;20.70;42.60;;;;;;5025529;28;20656;-82
2023/06/12 06:44:20;;;;;;;2.10;2.00;;;20.60;42.70;;;;;;5058376;28;20166;-79
2023/06/12 06:46:49;;;;;;;1.98;1.77;;;20.70;42.50;;;;;;5041727;28;20225;-80
2023/06/12 06:49:16;;;;;;;1.95;1.77;;;20.70;42.60;;;;;;5057015;28;20528;-83
2023/06/12 06:51:42;;;;;;;2.08;1.98;;;20.70;42.50;;;;;;5058817;28;20182;-82
2023/06/12 06:54:10;;;;;;;1.95;1.80;;;20.70;42.50;;;;;;5042268;28;20173;-79
2023/06/12 06:56:35;;;;;;;2.05;1.95;;;20.70;42.40;;;;;;5037959;28;20159;-80
2023/06/12 06:59:01;;;;;;;2.17;1.98;;;20.80;42.30;;;;;;5030785;28;20169;-83
2023/06/12 07:01:27;;;;;;;2.20;2.00;;;20.70;42.30;;;;;;5038986;28;20529;-80
2023/06/12 07:03:53;;;;;;;1.63;1.52;;;20.60;42.40;;;;;;5049662;28;20169;-79
2023/06/12 07:06:18;;;;;;;2.20;1.90;;;20.70;42.40;;;;;;5057106;28;20237;-80
2023/06/12 07:08:44;;;;;;;2.10;1.90;;;20.60;42.40;;;;;;5056832;28;20186;-82
2023/06/12 07:11:10;;;;;;;2.03;1.90;;;20.60;42.50;;;;;;5040817;28;20158;-78
2023/06/12 07:13:38;;;;;;;2.05;1.88;;;20.60;42.40;;;;;;5058169;28;20173;-82
2023/06/12 07:16:04;;;;;;;1.85;1.70;;;20.60;42.50;;;;;;5056857;28;20166;-79
2023/06/12 07:18:30;;;;;;;1.80;1.70;;;20.60;42.50;;;;;;5060478;28;20236;-78
2023/06/12 07:20:55;;;;;;;3.17;1.95;;;20.60;42.40;;;;;;5061030;28;20524;-81
2023/06/12 07:23:21;;;;;;;2.00;1.90;;;20.60;42.50;;;;;;5060615;28;20177;-80
2023/06/12 07:26:02;;;;;;;1.60;1.50;;;20.60;42.50;;;;;;5059299;28;20173;-81
2023/06/12 07:28:31;;;;;;;1.80;1.70;;;20.50;42.50;;;;;;5057464;28;20690;-80
2023/06/12 07:30:58;;;;;;;2.03;1.83;;;20.50;42.40;;;;;;5053281;28;20189;-82
2023/06/12 07:33:25;;;;;;;1.60;1.50;;;20.50;42.50;;;;;;5059253;28;20185;-78
2023/06/12 07:35:51;;;;;;;1.70;1.60;;;20.50;42.50;;;;;;5038583;28;20178;-81
2023/06/12 07:38:21;;;;;;;1.80;1.70;;;20.50;42.60;;;;;;5041660;28;20192;-80
2023/06/12 07:40:47;;;;;;;1.80;1.70;;;20.50;42.60;;;;;;5059802;28;20170;-78
2023/06/12 07:43:12;;;;;;;1.50;1.40;;;20.50;42.40;;;;;;5058716;28;20158;-77
2023/06/12 07:45:40;;;;;;;1.77;1.67;;;20.50;42.30;;;;;;5057488;28;20252;-78
2023/06/12 07:48:07;;;;;;;1.92;1.80;;;20.60;42.10;;;;;;5057254;28;20202;-80
2023/06/12 07:50:32;;;;;;;1.60;1.50;;;20.60;42.20;;;;;;5038818;28;20802;-78
2023/06/12 07:52:58;;;;;;;1.80;1.70;;;20.50;42.10;;;;;;5055430;28;20193;-77
2023/06/12 07:55:24;;;;;;;1.80;1.70;;;20.60;42.00;;;;;;5055804;28;20185;-81
2023/06/12 07:57:50;;;;;;;1.80;1.70;;;20.60;42.10;;;;;;5056614;28;20162;-77
2023/06/12 08:00:16;;;;;;;2.35;1.67;;;20.60;42.10;;;;;;5060570;28;20613;-81
2023/06/12 08:02:42;;;;;;;1.90;1.58;;;20.50;42.10;;;;;;5039728;28;20698;-82
2023/06/12 08:05:08;;;;;;;1.70;1.60;;;20.60;42.00;;;;;;5040503;28;20162;-78
2023/06/12 08:07:34;;;;;;;1.70;1.60;;;20.50;41.90;;;;;;5057744;28;20562;-80
2023/06/12 08:10:00;;;;;;;1.60;1.50;;;20.50;41.90;;;;;;5040295;28;20169;-79
2023/06/12 08:12:26;;;;;;;2.78;1.70;;;20.40;41.70;;;;;;5056939;28;20170;-82
2023/06/12 08:14:53;;;;;;;3.50;1.90;;;20.60;41.80;;;;;;5056115;28;20192;-81
2023/06/12 08:17:20;;;;;;;1.67;1.50;;;20.60;41.50;;;;;;5031457;28;20178;-79
2023/06/12 08:19:48;;;;;;;1.70;1.60;;;20.70;41.50;;;;;;5056742;28;20306;-80
2023/06/12 08:22:15;;;;;;;2.47;1.67;;;20.80;41.00;;;;;;5045036;28;20169;-78
2023/06/12 08:24:43;;;;;;;1.92;1.73;;;20.90;41.00;;;;;;5055828;28;20178;-80
2023/06/12 08:27:12;;;;;;;1.73;1.63;;;20.80;41.40;;;;;;5056144;28;20186;-79
2023/06/12 08:29:40;;;;;;;2.03;1.80;;;20.70;41.50;;;;;;5055222;28;20248;-80
2023/06/12 08:32:10;;;;;;;2.13;1.40;;;20.70;41.40;;;;;;5035162;28;20193;-80
2023/06/12 08:34:47;;;;;;;1.60;1.50;;;20.70;41.40;;;;;;5035372;28;20564;-79
2023/06/12 08:37:13;;;;;;;1.60;1.50;;;20.80;41.20;;;;;;4999001;28;20191;-81
2023/06/12 08:39:38;;;;;;;1.88;1.50;;;20.70;41.30;;;;;;4981094;28;20582;-80
2023/06/12 08:42:09;;;;;;;1.70;1.60;;;20.60;41.40;;;;;;4985502;28;20194;-79
2023/06/12 08:44:34;;;;;;;1.75;1.65;;;20.60;41.50;;;;;;5013018;28;20214;-81
2023/06/12 08:47:01;;;;;;;1.85;1.60;;;20.60;41.30;;;;;;4998893;28;20223;-80
2023/06/12 08:49:27;;;;;;;1.63;1.52;;;20.60;41.40;;;;;;4982606;28;20159;-80
2023/06/12 08:51:53;;;;;;;1.98;1.77;;;20.60;41.40;;;;;;4998783;28;20188;-79
2023/06/12 08:54:21;;;;;;;1.50;1.40;;;20.60;41.20;;;;;;5015521;28;20156;-79
2023/06/12 08:56:47;;;;;;;2.28;1.50;;;20.80;41.00;;;;;;5017015;28;20187;-79
2023/06/12 08:59:14;;;;;;;1.83;1.73;;;20.80;41.00;;;;;;5004496;28;20163;-78
2023/06/12 09:01:40;;;;;;;1.92;1.45;;;20.70;41.00;;;;;;5025355;28;20198;-80
2023/06/12 09:04:15;;;;;;;1.63;1.50;;;20.70;41.00;;;;;;5024694;28;20205;-77
2023/06/12 09:06:42;;;;;;;2.95;1.58;;;20.60;41.10;;;;;;5025209;28;20245;-81
2023/06/12 09:09:08;;;;;;;1.50;1.40;;;20.60;41.00;;;;;;5019460;28;20186;-80
2023/06/12 09:11:36;;;;;;;1.67;1.58;;;20.60;41.10;;;;;;5057974;28;20162;-77
2023/06/12 09:14:02;;;;;;;4.85;1.60;;;20.60;41.00;;;;;;5059347;28;20643;-82
2023/06/12 09:16:28;;;;;;;1.70;1.60;;;20.50;40.90;;;;;;5041011;28;20166;-80
2023/06/12 09:18:57;;;;;;;3.15;1.88;;;20.60;40.90;;;;;;5058310;28;20249;-78
2023/06/12 09:21:23;;;;;;;3.20;1.73;;;20.60;41.00;;;;;;5043074;28;20277;-81
2023/06/12 09:23:54;;;;;;;4.00;1.85;;;20.50;41.00;;;;;;5041061;28;20174;-79
2023/06/12 09:26:22;;;;;;;2.40;1.77;;;20.60;40.90;;;;;;5056820;28;20680;-81
2023/06/12 09:28:56;;;;;;;2.00;1.80;;;20.60;40.90;;;;;;5039917;28;20202;-80
2023/06/12 09:31:22;;;;;;;1.95;1.38;;;20.60;40.80;;;;;;5035669;28;20169;-79
2023/06/12 09:33:50;;;;;;;1.60;1.50;;;20.60;40.70;;;;;;5039556;28;20182;-78
2023/06/12 09:36:18;;;;;;;1.38;1.27;;;20.60;40.50;;;;;;5021672;28;20175;-80
2023/06/12 09:38:43;;;;;;;1.67;1.58;;;20.60;40.60;;;;;;5039175;28;20657;-82
2023/06/12 09:41:09;;;;;;;3.08;1.40;;;20.60;40.40;;;;;;5041424;28;20182;-78
2023/06/12 09:43:35;;;;;;;1.55;1.45;;;20.60;40.40;;;;;;5058072;28;20189;-81
2023/06/12 09:46:02;;;;;;;1.60;1.50;;;20.60;40.20;;;;;;5024667;28;20209;-81
2023/06/12 09:48:35;;;;;;;1.63;1.50;;;20.70;40.20;;;;;;5042254;28;20239;-80
2023/06/12 09:51:06;;;;;;;2.13;1.77;;;20.60;40.10;;;;;;5023099;28;20242;-80
2023/06/12 09:53:36;;;;;;;1.60;1.50;;;20.70;40.10;;;;;;5019453;28;20262;-80
2023/06/12 09:56:05;;;;;;;1.70;1.58;;;20.70;40.10;;;;;;5051360;28;20165;-78
2023/06/12 09:58:36;;;;;;;1.50;1.40;;;20.70;40.00;;;;;;5057007;28;20170;-78
2023/06/12 10:01:05;;;;;;;1.38;1.27;;;20.70;40.00;;;;;;5057552;28;20179;-79
2023/06/12 10:03:37;;;;;;;1.70;1.60;;;20.70;39.80;;;;;;5058041;28;20170;-81
2023/06/12 10:06:04;;;;;;;1.80;1.70;;;20.70;39.80;;;;;;5056963;28;20196;-81
2023/06/12 10:08:30;;;;;;;1.67;1.58;;;20.60;39.80;;;;;;5045990;28;20190;-81
2023/06/12 10:10:56;;;;;;;1.70;1.60;;;20.60;39.80;;;;;;5038897;28;20151;-78
2023/06/12 10:13:21;;;;;;;2.17;1.50;;;20.70;39.80;;;;;;5047970;28;20156;-79
2023/06/12 10:15:48;;;;;;;1.60;1.50;;;20.70;39.60;;;;;;5058307;28;20154;-78
2023/06/12 10:18:14;;;;;;;1.50;1.40;;;20.60;39.40;;;;;;5058179;28;20185;-79
2023/06/12 10:20:40;;;;;;;1.70;1.60;;;20.70;39.40;;;;;;5059065;28;20166;-77
2023/06/12 10:23:06;;;;;;;1.55;1.35;;;20.80;39.30;;;;;;5042835;28;20167;-79
2023/06/12 10:25:31;;;;;;;2.42;1.50;;;20.70;39.30;;;;;;5055022;28;20181;-78
2023/06/12 10:27:57;;;;;;;1.80;1.60;;;20.70;39.10;;;;;;5059446;28;20196;-80
2023/06/12 10:30:23;;;;;;;1.50;1.40;;;20.80;39.00;;;;;;5059818;28;20279;-78
2023/06/12 10:32:48;;;;;;;1.67;1.58;;;20.80;38.80;;;;;;5057022;28;20150;-78
2023/06/12 10:35:29;;;;;;;1.33;1.23;;;20.80;38.60;;;;;;5057669;28;20162;-80
2023/06/12 10:37:55;;;;;;;1.65;1.45;;;20.90;38.70;;;;;;5054867;28;20570;-79
2023/06/12 10:40:22;;;;;;;1.58;1.48;;;20.80;38.50;;;;;;5038023;28;20544;-79
2023/06/12 10:43:00;;;;;;;1.67;1.58;;;20.90;38.40;;;;;;5055625;28;20173;-79
2023/06/12 10:45:28;;;;;;;5.00;1.52;;;20.80;38.50;;;;;;5055138;28;20194;-78
2023/06/12 10:48:13;;;;;;;1.98;1.60;;;20.90;38.30;;;;;;5054890;28;20201;-77
2023/06/12 10:50:44;;;;;;;1.50;1.40;;;20.90;38.00;;;;;;5055610;28;20625;-77
2023/06/12 10:53:13;;;;;;;1.60;1.50;;;20.90;37.90;;;;;;5037639;28;20163;-80
2023/06/12 10:55:40;;;;;;;2.22;1.33;;;20.90;37.90;;;;;;5038304;28;20218;-81
2023/06/12 10:58:10;;;;;;;1.52;1.23;;;20.90;38.00;;;;;;5055259;28;20638;-78
2023/06/12 11:00:37;;;;;;;1.50;1.40;;;20.90;37.70;;;;;;5054921;28;20166;-77
2023/06/12 11:03:05;;;;;;;1.38;1.27;;;20.90;37.50;;;;;;5054553;28;20268;-77
2023/06/12 11:05:32;;;;;;;1.95;1.30;;;20.90;37.30;;;;;;5038323;28;20696;-78
2023/06/12 11:07:59;;;;;;;1.35;1.25;;;21.00;37.30;;;;;;5054709;28;20268;-78
2023/06/12 11:10:26;;;;;;;1.60;1.50;;;20.90;37.20;;;;;;5054637;28;20164;-81
2023/06/12 11:12:52;;;;;;;1.40;1.30;;;21.00;37.30;;;;;;5037873;28;20193;-80
2023/06/12 11:15:18;;;;;;;1.60;1.50;;;21.00;37.20;;;;;;5055106;28;20150;-77
2023/06/12 11:17:44;;;;;;;1.92;1.55;;;21.00;37.10;;;;;;5055641;28;20227;-78
2023/06/12 11:20:12;;;;;;;1.60;1.50;;;21.00;37.00;;;;;;5055928;28;20167;-77
2023/06/12 11:22:37;;;;;;;1.20;1.10;;;21.00;37.10;;;;;;5054323;28;20624;-77
2023/06/12 11:25:04;;;;;;;1.25;1.15;;;21.00;36.80;;;;;;5054978;28;20158;-80
2023/06/12 11:27:30;;;;;;;1.40;1.30;;;21.00;36.60;;;;;;5045502;28;20695;-77
2023/06/12 11:29:57;;;;;;;1.70;1.33;;;21.00;36.60;;;;;;5053671;28;20706;-81
2023/06/12 11:32:22;;;;;;;1.23;1.13;;;21.10;36.50;;;;;;5026614;28;20287;-82
2023/06/12 11:34:48;;;;;;;1.38;1.27;;;21.00;36.30;;;;;;5055194;28;20176;-79
2023/06/12 11:37:18;;;;;;;1.17;1.08;;;21.10;36.00;;;;;;5037392;28;20290;-79
2023/06/12 11:39:44;;;;;;;1.95;1.40;;;21.10;35.80;;;;;;5054878;28;20208;-82
2023/06/12 11:42:10;;;;;;;1.60;1.50;;;21.10;36.00;;;;;;5048781;28;20175;-79
2023/06/12 11:44:39;;;;;;;2.13;1.17;;;21.10;35.70;;;;;;5043898;28;20201;-78
2023/06/12 11:47:06;;;;;;;1.35;1.25;;;21.10;35.80;;;;;;5057430;28;20724;-78
2023/06/12 11:49:36;;;;;;;2.25;1.10;;;21.10;35.70;;;;;;5058288;28;20169;-80
2023/06/12 11:52:05;;;;;;;1.60;1.25;;;21.10;35.70;;;;;;5038881;28;20528;-79
2023/06/12 11:54:31;;;;;;;1.35;1.20;;;21.10;35.70;;;;;;5057472;28;20158;-81
2023/06/12 11:57:05;;;;;;;1.60;1.20;;;21.10;35.60;;;;;;5039130;28;20263;-77
2023/06/12 11:59:39;;;;;;;1.20;1.10;;;21.20;35.60;;;;;;5054795;28;20201;-78
2023/06/12 12:02:06;;;;;;;1.35;1.25;;;21.20;35.50;;;;;;5036762;28;20197;-79
2023/06/12 12:04:32;;;;;;;1.33;1.20;;;21.20;35.30;;;;;;5034990;28;20163;-78
2023/06/12 12:06:58;;;;;;;1.48;1.38;;;21.30;35.20;;;;;;5045555;28;20197;-77
2023/06/12 12:09:26;;;;;;;1.40;1.30;;;21.30;35.10;;;;;;5049979;28;20158;-81
2023/06/12 12:11:52;;;;;;;1.42;1.33;;;21.30;35.10;;;;;;5038198;28;20162;-81
2023/06/12 12:14:18;;;;;;;1.45;1.30;;;21.30;35.00;;;;;;5054385;28;20158;-81
2023/06/12 12:16:43;;;;;;;1.63;1.10;;;21.30;34.80;;;;;;5037691;28;20166;-77
2023/06/12 12:19:26;;;;;;;1.50;1.40;;;21.40;34.80;;;;;;5054496;28;20158;-77
2023/06/12 12:21:52;;;;;;;1.40;1.30;;;21.40;34.50;;;;;;5056419;28;20178;-79
2023/06/12 12:24:17;;;;;;;1.50;1.15;;;21.40;34.40;;;;;;5057747;28;20169;-78
2023/06/12 12:26:48;;;;;;;1.20;1.10;;;21.40;34.40;;;;;;5058723;28;20167;-79
2023/06/12 12:29:15;;;;;;;1.27;1.17;;;21.40;34.30;;;;;;5056404;28;20161;-79
2023/06/12 12:31:41;;;;;;;1.40;1.30;;;21.40;34.60;;;;;;5058472;28;20158;-78
2023/06/12 12:34:08;;;;;;;1.63;1.20;;;21.40;34.40;;;;;;5062753;28;20214;-79
2023/06/12 12:36:35;;;;;;;1.58;1.23;;;21.40;34.40;;;;;;5043482;28;20167;-80
2023/06/12 12:39:03;;;;;;;1.20;1.10;;;21.40;34.40;;;;;;5001015;28;20180;-80
2023/06/12 12:41:30;;;;;;;1.27;1.17;;;21.40;34.60;;;;;;5001148;28;20204;-80
2023/06/12 12:43:56;;;;;;;1.30;1.20;;;21.40;34.50;;;;;;5001123;28;20176;-80
2023/06/12 12:46:23;;;;;;;1.30;1.20;;;21.40;34.40;;;;;;4998949;28;20817;-80
2023/06/12 12:48:49;;;;;;;1.77;1.15;;;21.40;34.10;;;;;;5020171;28;20213;-80
2023/06/12 12:51:26;;;;;;;0.77;0.77;;;21.40;34.00;;;;;;5003107;28;20632;-79
2023/06/12 12:53:52;;;;;;;1.00;0.90;;;21.50;34.00;;;;;;4982074;28;20236;-78